Main page
METAR-TAF:

METAR-TAF

Airports :

Lokpriya Gopinath Bordoloi International Airport

Guwahati, India

latitude: 26-06-22N, longitude: 091-35-09E, elevation: 49 m

Current weather observation

The report was made 3 hours and 10 minutes ago, at 20:00 UTC
Wind 5 kt from the North
Temperature 25°C
Humidity 89%
Pressure 1003 hPa
Visibility: 2500 m
Scattered clouds at a height of 1800 ft
Scattered clouds at a height of 10000 ft
mist,

METAR: VEGT 222000Z 35005KT 2500 BR SCT018 SCT100 25/23 Q1003 NOSIG

Time: 04:40 (23:10 UTC)

Forecast

The report was made 6 hours and 10 minutes ago, at 17:00 UTC
Forecast valid from 22 at 18 UTC to 23 at 03 UTC
Wind 3 kt from the North/Northwest
Visibility: 2500 m
Scattered clouds at a height of 1800 ft
Broken clouds at a height of 10000 ft
mist,

TAF: VEGT 221700Z 2218/2303 34003KT 2500 BR SCT018 BKN100

Weather observations and forecasts of more than 4000 airports (METAR and TAF reports).

The available stations are represented by yellow and red dots on the map.

Hover mouse over dot to see the name of the station.

Then click to see weather observations and forecasts.

To change the map : click on the green buttons with a black cross to zoom in, on the green button with a dash to zoom out, or on the green arrows for adjacent maps.


METAR-TAF: